Decoded Metar for DAUH (HASSI-MESSAOUD in ALGERIA) (IATA:HME) | Meteo·Mobile Aviation Weather
aviador You're here:

DAUH Decoded Metar

HASSI-MESSAOUD in ALGERIA
Report Time2020-01-25 16:30:00
UTC Time2020-01-25 16:44:31
Flight Rules vfr VFR
Wind100° at 03 kt
W.Decomp.*RWY 18: 0.5 kt HW 3 kt LCW
Visibility9999 m
Phenomena:N/A
Clouds:Few 040 Hf
Broken 233 Hf
Expected CloudBase > 8,400 ft AGL from Temp-Dew spread
Ceiling23,300 ft
Temp22°C (ISA +8)
Dew Point01°C (25% RH)
AAT19.1°C
QNH1020 hPa
Density Alt1,250 ft
Elevation466 ft
Report Wrong Elevation
Raw Report
DAUH 251630Z 10003KT 9999 FEW040 BKN233 22/01 Q1020=

Extra information for DAUH:More info

Metar Taf Metar & Taf Last 4 Metars F.Rules Stats Wind Profile Meteogram Temp Stats Airport Information Weather charts Add Link Nearby VenuesMetar ALERT Operation Metar Decoded Social comments